Time;durP1;ratioP1;P1;durP2;ratioP2;P2;SDS_P1;SDS_P2;PMS_P1;PMS_P2;Temp;Humidity;BMP_temperature;BMP_pressure;BME280_temperature;BME280_humidity;BME280_pressure;Samples;Min_cycle;Max_cycle;Signal;HPM_P1;HPM_P2
2021/08/27 00:03:35;;;;;;;21.50;13.60;;;;;;;14.39;68.79;98356.11;233015;1198;138631;-62
2021/08/27 00:08:39;;;;;;;22.80;14.60;;;;;;;14.41;68.97;98351.88;234172;1198;139033;-61
2021/08/27 00:13:43;;;;;;;20.30;14.40;;;;;;;14.40;68.88;98339.85;234064;1196;139438;-64
2021/08/27 00:18:45;;;;;;;22.30;15.00;;;;;;;14.38;68.99;98334.49;233915;1200;139188;-60
2021/08/27 00:23:49;;;;;;;23.20;15.50;;;;;;;14.41;69.18;98339.56;233749;1199;140132;-59
2021/08/27 00:28:52;;;;;;;22.80;16.30;;;;;;;14.44;69.15;98342.68;233933;1199;139534;-61
2021/08/27 00:33:55;;;;;;;27.90;16.40;;;;;;;14.49;69.25;98351.89;234179;1199;139201;-62
2021/08/27 00:38:59;;;;;;;34.80;19.40;;;;;;;14.51;69.30;98356.90;234077;1198;139157;-64
2021/08/27 00:44:02;;;;;;;29.70;19.00;;;;;;;14.52;69.37;98357.72;234116;1199;138615;-63
2021/08/27 00:49:05;;;;;;;29.50;18.70;;;;;;;14.58;69.44;98362.23;233863;1196;139796;-61
2021/08/27 00:54:08;;;;;;;27.20;17.90;;;;;;;14.62;69.40;98361.58;234210;1198;139234;-62
2021/08/27 00:59:11;;;;;;;29.40;19.20;;;;;;;14.66;69.40;98357.35;234202;1198;138609;-62
2021/08/27 01:04:14;;;;;;;26.40;18.20;;;;;;;14.69;69.41;98362.79;234334;1198;138827;-61
2021/08/27 01:09:34;;;;;;;25.30;18.20;;;;;;;14.67;69.31;98358.39;234045;1198;138973;-61
2021/08/27 01:14:41;;;;;;;25.10;16.70;;;;;;;14.71;69.32;98363.92;233984;1199;139624;-63
2021/08/27 01:20:06;;;;;;;23.90;17.20;;;;;;;14.76;69.42;98363.39;233796;1199;140554;-62
2021/08/27 01:25:13;;;;;;;29.00;18.90;;;;;;;14.84;69.61;98349.67;234121;1199;138623;-62
2021/08/27 01:30:27;;;;;;;29.00;19.70;;;;;;;14.92;69.58;98353.64;233857;1199;138847;-62
2021/08/27 01:35:32;;;;;;;29.60;20.00;;;;;;;14.93;69.53;98352.31;233917;1200;139361;-62
2021/08/27 01:40:38;;;;;;;27.00;19.10;;;;;;;14.95;69.50;98346.39;234370;1198;139363;-62
2021/08/27 01:45:44;;;;;;;28.90;21.00;;;;;;;14.96;69.51;98341.96;234054;1199;139487;-62
2021/08/27 01:50:47;;;;;;;29.90;20.90;;;;;;;15.00;69.43;98337.86;234074;1199;139815;-61
2021/08/27 01:55:51;;;;;;;29.40;21.10;;;;;;;14.99;69.37;98344.25;234190;1196;139274;-59
2021/08/27 02:00:58;;;;;;;31.80;21.50;;;;;;;14.96;69.38;98346.05;234217;1198;139682;-61
2021/08/27 02:06:01;;;;;;;34.50;22.00;;;;;;;14.93;69.28;98351.85;234275;1198;139568;-63
2021/08/27 02:11:05;;;;;;;33.80;22.70;;;;;;;14.92;69.32;98356.25;234119;1198;139301;-62
2021/08/27 02:16:10;;;;;;;40.60;25.00;;;;;;;14.89;69.40;98355.11;234192;1200;139679;-63
2021/08/27 02:21:13;;;;;;;36.30;23.50;;;;;;;14.85;69.32;98364.23;233753;1201;139339;-60
2021/08/27 02:26:18;;;;;;;30.70;22.20;;;;;;;14.80;69.53;98361.25;234172;1198;139438;-60
2021/08/27 02:31:25;;;;;;;31.80;22.30;;;;;;;14.80;69.64;98365.36;234134;1198;139678;-59
2021/08/27 02:36:29;;;;;;;27.90;17.00;;;;;;;14.83;69.86;98372.60;234188;1198;139862;-60
2021/08/27 02:41:32;;;;;;;20.60;12.90;;;;;;;14.84;69.68;98375.55;234048;1200;139229;-67
2021/08/27 02:46:35;;;;;;;17.40;12.20;;;;;;;14.83;69.70;98370.66;234101;1201;138635;-63
2021/08/27 02:51:45;;;;;;;16.90;10.60;;;;;;;14.82;69.82;98376.41;234074;1199;139133;-61
2021/08/27 02:56:51;;;;;;;14.20;8.60;;;;;;;14.80;69.71;98379.70;233945;1199;139509;-62
2021/08/27 03:01:57;;;;;;;15.00;9.10;;;;;;;14.85;69.94;98385.80;233756;1201;139536;-61
2021/08/27 03:07:05;;;;;;;14.90;9.20;;;;;;;14.87;70.01;98392.90;234158;1199;138597;-60
2021/08/27 03:12:11;;;;;;;20.10;9.60;;;;;;;14.88;69.97;98399.14;234165;1198;139059;-60
2021/08/27 03:17:18;;;;;;;16.00;9.70;;;;;;;14.87;69.97;98399.02;233826;1195;139059;-58
2021/08/27 03:22:25;;;;;;;17.50;10.10;;;;;;;14.84;69.90;98395.73;234321;1198;139161;-62
2021/08/27 03:27:31;;;;;;;19.80;10.70;;;;;;;14.85;69.89;98400.44;234179;1198;140551;-64
2021/08/27 03:32:35;;;;;;;20.60;12.50;;;;;;;14.85;69.78;98401.73;234189;1198;139994;-64
2021/08/27 03:37:38;;;;;;;20.00;12.50;;;;;;;14.81;69.79;98401.35;234161;1198;139671;-59
2021/08/27 03:42:42;;;;;;;16.60;11.50;;;;;;;14.80;69.87;98404.34;233887;1198;139045;-61
2021/08/27 03:47:46;;;;;;;16.60;9.80;;;;;;;14.79;69.89;98406.30;233961;1198;138856;-60
2021/08/27 03:52:51;;;;;;;18.60;11.10;;;;;;;14.80;69.87;98402.67;234017;1198;139636;-63
2021/08/27 03:57:56;;;;;;;16.30;11.40;;;;;;;14.83;69.80;98406.36;234283;1198;139066;-64
2021/08/27 04:03:12;;;;;;;18.30;11.60;;;;;;;14.86;69.97;98408.94;234235;1198;138846;-65
2021/08/27 04:08:16;;;;;;;23.50;11.50;;;;;;;14.85;69.99;98411.92;234072;1198;139226;-63
2021/08/27 04:13:18;;;;;;;15.60;10.50;;;;;;;14.81;69.91;98405.26;234132;1195;138956;-62
2021/08/27 04:18:21;;;;;;;15.90;10.70;;;;;;;14.84;69.91;98404.80;233972;1200;139280;-65
2021/08/27 04:23:24;;;;;;;17.50;11.50;;;;;;;14.83;69.82;98411.31;233680;1201;139037;-62
2021/08/27 04:28:28;;;;;;;15.50;11.00;;;;;;;14.83;69.74;98418.31;234162;1198;138911;-61
2021/08/27 04:33:31;;;;;;;17.50;12.50;;;;;;;14.85;70.07;98420.46;234139;1199;139841;-61
2021/08/27 04:38:34;;;;;;;18.80;12.10;;;;;;;14.82;69.89;98426.27;234134;1198;138550;-63
2021/08/27 04:43:37;;;;;;;20.20;11.80;;;;;;;14.79;69.79;98427.64;234169;1198;139269;-64
2021/08/27 04:48:40;;;;;;;18.90;11.60;;;;;;;14.76;69.91;98428.27;234136;1198;141533;-66
2021/08/27 04:53:43;;;;;;;19.40;11.90;;;;;;;14.78;69.97;98433.21;233905;1198;139093;-65
2021/08/27 04:58:46;;;;;;;21.90;12.60;;;;;;;14.79;70.14;98436.40;234066;1198;139270;-62
2021/08/27 05:03:49;;;;;;;21.80;12.80;;;;;;;14.78;70.19;98442.89;234295;1198;139116;-61
2021/08/27 05:08:52;;;;;;;21.70;13.10;;;;;;;14.77;70.14;98445.10;233772;1198;139147;-57
2021/08/27 05:13:55;;;;;;;22.00;13.50;;;;;;;14.78;70.10;98446.30;233781;1199;139867;-59
2021/08/27 05:18:58;;;;;;;23.90;16.00;;;;;;;14.81;70.23;98449.57;233897;1199;139570;-65
2021/08/27 05:24:02;;;;;;;25.90;15.30;;;;;;;14.87;70.32;98447.24;233971;1198;139713;-60
2021/08/27 05:29:05;;;;;;;28.20;19.30;;;;;;;15.00;70.77;98441.66;233942;1195;138548;-61
2021/08/27 05:34:08;;;;;;;24.10;16.10;;;;;;;15.37;71.27;98442.23;234293;1198;138681;-60
2021/08/27 05:39:11;;;;;;;108.90;75.00;;;;;;;15.53;70.83;98441.63;233894;1198;139938;-63
2021/08/27 05:44:14;;;;;;;26.20;17.50;;;;;;;15.91;71.66;98433.67;233655;1199;139352;-64
2021/08/27 05:49:17;;;;;;;214.00;156.50;;;;;;;16.05;69.92;98432.15;233810;1198;138920;-60
2021/08/27 05:54:20;;;;;;;33.70;22.80;;;;;;;16.03;69.93;98433.92;234110;1195;139089;-62
2021/08/27 05:59:24;;;;;;;26.90;18.80;;;;;;;16.30;70.69;98434.77;233749;1199;139734;-65
2021/08/27 06:04:28;;;;;;;28.70;17.80;;;;;;;16.53;70.22;98433.48;232946;1195;138628;-59
2021/08/27 06:09:34;;;;;;;32.10;19.30;;;;;;;16.73;69.98;98437.82;232883;1200;140193;-63
2021/08/27 06:14:41;;;;;;;27.70;19.60;;;;;;;16.75;68.96;98451.29;233070;1196;138716;-63
2021/08/27 06:19:45;;;;;;;32.80;19.70;;;;;;;16.73;68.81;98452.33;232936;1199;138766;-64
2021/08/27 06:24:50;;;;;;;38.80;19.90;;;;;;;16.80;68.96;98453.83;232936;1199;139213;-63
2021/08/27 06:29:58;;;;;;;34.10;18.80;;;;;;;16.88;69.17;98456.13;232552;1201;139198;-64
2021/08/27 06:35:05;;;;;;;35.50;19.40;;;;;;;17.13;69.47;98459.00;232654;1201;139989;-64
2021/08/27 06:40:14;;;;;;;30.20;19.30;;;;;;;17.39;68.99;98458.77;232864;1202;140099;-64
2021/08/27 06:45:22;;;;;;;31.80;20.40;;;;;;;17.36;67.71;98464.29;232956;1199;138822;-63
2021/08/27 06:50:38;;;;;;;34.20;22.60;;;;;;;17.29;67.50;98468.05;233738;1198;138818;-60
2021/08/27 06:55:41;;;;;;;28.20;18.60;;;;;;;17.22;67.62;98474.28;233949;1198;140408;-61
2021/08/27 07:00:44;;;;;;;30.60;19.00;;;;;;;17.33;67.93;98476.15;233702;1198;139011;-62
2021/08/27 07:05:48;;;;;;;28.90;20.00;;;;;;;17.45;67.46;98478.46;233765;1195;138558;-62
2021/08/27 07:10:51;;;;;;;28.30;19.50;;;;;;;17.47;66.71;98482.08;234094;1198;140270;-63
2021/08/27 07:15:56;;;;;;;24.40;17.90;;;;;;;17.26;65.87;98481.39;233712;1198;138920;-63
2021/08/27 07:20:59;;;;;;;30.20;17.40;;;;;;;17.03;65.86;98482.77;233637;1198;138644;-63
2021/08/27 07:26:03;;;;;;;24.80;13.60;;;;;;;16.86;66.03;98478.39;233986;1201;140912;-65
2021/08/27 07:31:06;;;;;;;19.30;13.30;;;;;;;16.68;65.77;98481.48;234226;1198;152180;-65
2021/08/27 07:36:10;;;;;;;21.90;12.40;;;;;;;16.53;65.84;98480.41;233889;1198;139010;-61
2021/08/27 07:41:13;;;;;;;16.30;11.30;;;;;;;16.52;66.08;98483.02;234161;1199;140194;-61
2021/08/27 07:46:16;;;;;;;15.00;10.40;;;;;;;16.52;66.17;98476.40;233792;1198;140185;-62
2021/08/27 07:51:20;;;;;;;56.90;36.80;;;;;;;16.52;66.17;98478.92;233687;1198;138967;-62
2021/08/27 07:56:23;;;;;;;15.20;8.90;;;;;;;16.81;68.05;98475.99;233819;1195;139436;-62
2021/08/27 08:01:26;;;;;;;14.20;7.10;;;;;;;17.03;66.88;98474.90;234139;1198;139881;-63
2021/08/27 08:06:31;;;;;;;8.80;6.10;;;;;;;17.06;66.40;98475.48;234085;1196;139274;-63
2021/08/27 08:11:35;;;;;;;7.60;5.30;;;;;;;17.08;65.85;98486.80;234151;1198;138307;-61
2021/08/27 08:16:38;;;;;;;9.80;5.80;;;;;;;17.03;65.42;98484.20;234262;1198;138497;-61
2021/08/27 08:21:41;;;;;;;83.00;52.60;;;;;;;16.99;65.18;98485.35;234158;1198;139457;-63
2021/08/27 08:26:45;;;;;;;11.80;6.40;;;;;;;17.12;66.82;98487.99;233965;1198;138685;-59
2021/08/27 08:31:50;;;;;;;10.80;5.70;;;;;;;17.19;65.73;98495.34;234102;1198;139868;-64
2021/08/27 08:36:53;;;;;;;;;;;;;;;17.16;65.13;98497.88;234227;1198;138750;-58
2021/08/27 08:41:56;;;;;;;6.20;3.80;;;;;;;17.07;65.23;98498.15;233827;1198;129884;-59
2021/08/27 08:47:02;;;;;;;7.50;4.70;;;;;;;16.94;65.03;98503.17;233940;1196;139104;-61
2021/08/27 08:52:07;;;;;;;6.90;4.60;;;;;;;16.85;65.04;98497.06;233579;1198;140908;-61
2021/08/27 08:57:10;;;;;;;10.80;6.10;;;;;;;16.83;65.37;98503.75;233665;1199;138962;-62
2021/08/27 09:02:14;;;;;;;175.20;120.70;;;;;;;16.92;65.73;98507.00;233400;1198;140154;-64
2021/08/27 09:07:17;;;;;;;8.20;4.60;;;;;;;17.06;65.85;98502.71;233690;1199;139367;-64
2021/08/27 09:12:22;;;;;;;9.20;6.70;;;;;;;17.23;65.79;98500.02;233774;1198;139440;-60
2021/08/27 09:17:33;;;;;;;7.30;3.30;;;;;;;17.32;65.56;98506.14;233808;1196;138816;-65
2021/08/27 09:22:55;;;;;;;4.50;3.20;;;;;;;17.35;64.76;98509.44;234172;1196;138283;-62
2021/08/27 09:28:06;;;;;;;6.30;3.20;;;;;;;17.35;64.79;98513.16;234154;1197;138884;-62
2021/08/27 09:33:16;;;;;;;6.70;3.60;;;;;;;17.32;64.52;98517.27;234054;1198;139413;-65
2021/08/27 09:38:19;;;;;;;14.90;11.40;;;;;;;17.29;64.45;98511.27;233982;1197;138924;-65
2021/08/27 09:43:24;;;;;;;8.00;4.00;;;;;;;17.30;64.75;98511.90;234121;1198;138703;-65
2021/08/27 09:48:37;;;;;;;6.80;3.70;;;;;;;17.32;64.44;98516.42;233710;1199;138820;-64
2021/08/27 09:53:42;;;;;;;6.90;3.90;;;;;;;17.30;64.06;98521.95;234010;1196;138495;-65
2021/08/27 09:58:53;;;;;;;7.50;3.60;;;;;;;17.28;63.95;98521.98;233652;1199;138130;-64
2021/08/27 10:04:04;;;;;;;4.60;2.70;;;;;;;17.27;64.07;98526.29;234143;1198;138546;-65
2021/08/27 10:09:15;;;;;;;110.10;84.80;;;;;;;17.29;63.68;98523.59;233374;1199;139149;-64
2021/08/27 10:14:41;;;;;;;39.80;20.50;;;;;;;17.32;63.86;98521.66;232639;1199;139327;-63
2021/08/27 10:19:44;;;;;;;13.50;6.90;;;;;;;17.45;64.42;98520.27;233478;1199;138672;-66
2021/08/27 10:24:58;;;;;;;10.80;8.10;;;;;;;17.68;65.24;98517.98;233223;1199;138600;-65
2021/08/27 10:30:12;;;;;;;5.40;2.60;;;;;;;17.90;64.13;98517.61;232947;1199;139267;-66
2021/08/27 10:35:23;;;;;;;5.30;3.40;;;;;;;17.86;63.06;98523.20;232753;1200;139954;-65
2021/08/27 10:40:41;;;;;;;6.00;4.40;;;;;;;17.85;63.05;98517.23;232685;1200;138438;-64
2021/08/27 10:53:24;;;;;;;5.60;3.70;;;;;;;17.99;63.07;98516.69;231823;1213;674767;-67
2021/08/27 10:58:56;;;;;;;6.20;3.30;;;;;;;17.86;62.54;98518.83;232400;1204;143754;-67
2021/08/27 11:04:17;;;;;;;4.00;3.40;;;;;;;17.75;62.61;98515.14;232829;1201;138688;-68
2021/08/27 11:09:24;;;;;;;6.10;3.90;;;;;;;17.61;62.68;98514.48;233909;1201;137867;-66
2021/08/27 11:14:27;;;;;;;6.50;4.00;;;;;;;17.50;62.99;98518.55;233899;1201;139036;-65
2021/08/27 11:19:35;;;;;;;6.90;4.70;;;;;;;17.42;63.05;98518.02;233782;1201;137562;-66
2021/08/27 11:25:01;;;;;;;7.00;4.70;;;;;;;17.34;63.31;98517.79;233854;1202;138431;-66
2021/08/27 11:30:42;;;;;;;7.50;4.50;;;;;;;17.30;63.45;98518.73;233777;1201;138584;-66
2021/08/27 11:35:59;;;;;;;6.20;4.90;;;;;;;17.31;63.65;98517.11;233893;1201;138743;-66
2021/08/27 11:41:03;;;;;;;7.20;4.00;;;;;;;17.34;63.52;98519.58;233822;1201;139216;-67
2021/08/27 11:46:12;;;;;;;5.50;3.70;;;;;;;17.40;63.66;98522.39;233869;1201;138221;-67
2021/08/27 11:51:23;;;;;;;8.40;3.90;;;;;;;17.44;63.30;98520.49;233745;1201;138241;-66
2021/08/27 11:56:26;;;;;;;7.90;4.00;;;;;;;17.52;63.22;98518.86;233762;1202;137862;-67
2021/08/27 12:01:34;;;;;;;5.30;4.00;;;;;;;17.55;63.02;98521.25;233297;1201;138354;-67
2021/08/27 12:10:09;;;;;;;8.10;4.40;;;;;;;17.61;62.76;98516.91;231133;1217;636016;-67
2021/08/27 12:15:15;;;;;;;7.90;4.60;;;;;;;17.61;62.85;98520.83;233062;1200;137892;-67
2021/08/27 12:20:20;;;;;;;5.10;4.10;;;;;;;17.58;62.82;98515.96;233386;1204;137784;-67
2021/08/27 12:25:28;;;;;;;7.30;4.50;;;;;;;17.53;62.73;98520.55;233644;1204;138168;-69
2021/08/27 12:30:58;;;;;;;5.60;4.10;;;;;;;17.54;62.77;98521.58;233488;1204;140522;-67
2021/08/27 12:36:01;;;;;;;9.70;7.40;;;;;;;17.56;62.80;98517.23;233720;1204;138021;-67
2021/08/27 12:41:17;;;;;;;16.40;10.00;;;;;;;17.53;62.67;98521.57;233542;1204;137753;-67
2021/08/27 12:46:31;;;;;;;6.60;3.70;;;;;;;17.50;62.32;98524.60;233349;1205;138542;-67
2021/08/27 12:51:39;;;;;;;4.00;3.50;;;;;;;17.44;62.14;98531.60;233579;1204;137238;-69
2021/08/27 12:57:03;;;;;;;5.90;3.50;;;;;;;17.40;61.96;98535.61;233588;1204;137681;-67
2021/08/27 13:02:20;;;;;;;6.10;3.30;;;;;;;17.35;61.97;98539.75;233425;1204;138249;-67
2021/08/27 13:07:27;;;;;;;4.30;3.70;;;;;;;17.28;61.88;98540.55;233468;1204;137623;-65
2021/08/27 13:12:31;;;;;;;6.50;4.10;;;;;;;17.21;61.95;98542.49;233748;1204;138394;-66
2021/08/27 13:17:34;;;;;;;5.80;4.10;;;;;;;17.14;62.06;98542.09;233472;1204;137990;-67
2021/08/27 13:22:41;;;;;;;9.40;4.40;;;;;;;17.07;62.01;98538.31;233117;1204;137481;-66
2021/08/27 13:27:44;;;;;;;8.80;5.40;;;;;;;17.01;62.36;98539.78;233312;1204;138456;-67
2021/08/27 13:33:01;;;;;;;6.60;5.30;;;;;;;16.95;62.95;98539.25;232842;1205;139615;-67
2021/08/27 13:38:04;;;;;;;7.50;5.50;;;;;;;16.92;63.36;98541.61;233580;1204;138477;-68
2021/08/27 13:43:07;;;;;;;8.30;5.50;;;;;;;16.91;63.79;98543.84;233511;1204;137957;-67
2021/08/27 13:48:11;;;;;;;8.50;5.20;;;;;;;16.87;63.89;98547.77;233370;1204;138521;-67
2021/08/27 13:53:14;;;;;;;7.90;5.90;;;;;;;16.78;64.02;98552.73;233396;1205;137680;-66
2021/08/27 13:58:17;;;;;;;7.50;5.80;;;;;;;16.68;64.30;98559.92;233337;1206;137759;-65
2021/08/27 14:03:26;;;;;;;8.10;5.50;;;;;;;16.59;64.45;98566.94;233026;1206;138503;-68
2021/08/27 14:08:47;;;;;;;8.80;6.00;;;;;;;16.51;64.64;98568.87;232593;1205;139698;-68
2021/08/27 14:14:10;;;;;;;8.40;6.80;;;;;;;16.54;65.27;98571.27;232841;1205;138096;-69
2021/08/27 14:19:19;;;;;;;9.00;6.80;;;;;;;16.60;65.43;98572.39;232774;1204;138566;-69
2021/08/27 14:24:22;;;;;;;11.70;8.00;;;;;;;16.62;65.77;98567.02;233507;1204;137555;-66
2021/08/27 14:29:25;;;;;;;9.00;6.40;;;;;;;16.59;65.68;98570.31;233486;1204;138732;-66
2021/08/27 14:34:29;;;;;;;9.20;5.30;;;;;;;16.52;65.70;98570.36;232914;1204;137898;-68
2021/08/27 14:39:32;;;;;;;6.50;4.10;;;;;;;16.51;65.92;98571.20;233460;1201;138748;-66
2021/08/27 14:44:35;;;;;;;5.60;4.00;;;;;;;16.56;65.84;98573.09;233213;1202;139330;-67
2021/08/27 14:49:38;;;;;;;4.30;3.30;;;;;;;16.57;65.59;98576.23;233788;1201;137620;-66
2021/08/27 14:54:41;;;;;;;7.60;4.00;;;;;;;16.53;65.22;98575.48;233866;1203;137723;-66
2021/08/27 14:59:44;;;;;;;5.40;4.30;;;;;;;16.48;65.44;98581.00;233572;1201;137895;-67
2021/08/27 15:04:47;;;;;;;7.70;5.70;;;;;;;16.41;65.74;98577.20;233618;1202;138414;-66
2021/08/27 15:09:50;;;;;;;7.20;5.90;;;;;;;16.38;65.90;98578.60;233760;1202;137849;-67
2021/08/27 15:14:54;;;;;;;10.10;6.90;;;;;;;16.38;66.25;98579.09;233781;1201;138654;-66
2021/08/27 15:19:57;;;;;;;10.80;7.90;;;;;;;16.42;66.55;98575.70;233878;1201;138460;-66
2021/08/27 15:25:00;;;;;;;12.20;8.80;;;;;;;16.44;66.83;98575.13;233005;1202;138490;-65
2021/08/27 15:30:05;;;;;;;14.10;8.60;;;;;;;16.47;67.16;98576.57;233429;1201;138158;-68
2021/08/27 15:35:08;;;;;;;13.40;10.00;;;;;;;16.45;67.26;98578.04;232974;1201;138540;-66
2021/08/27 15:40:12;;;;;;;11.50;9.10;;;;;;;16.42;67.53;98579.37;233112;1201;138712;-67
2021/08/27 15:45:15;;;;;;;12.20;8.80;;;;;;;16.41;67.73;98586.31;233140;1201;139547;-66
2021/08/27 15:50:30;;;;;;;129.70;94.70;;;;;;;16.44;67.65;98587.86;233438;1203;138397;-65
2021/08/27 15:55:33;;;;;;;14.00;11.10;;;;;;;16.52;68.01;98593.34;233638;1201;139260;-63
2021/08/27 16:00:36;;;;;;;360.60;39.60;;;;;;;16.82;68.79;98594.84;233907;1201;138105;-65
2021/08/27 16:05:40;;;;;;;23.70;8.80;;;;;;;17.12;68.72;98604.69;233797;1201;138256;-62
2021/08/27 16:10:43;;;;;;;27.70;8.70;;;;;;;17.30;68.09;98602.21;233407;1201;139687;-65
2021/08/27 16:15:46;;;;;;;24.70;9.10;;;;;;;17.43;67.90;98606.51;233768;1201;138273;-65
2021/08/27 16:20:49;;;;;;;14.00;7.50;;;;;;;17.57;67.95;98612.15;233703;1201;138977;-64
2021/08/27 16:25:52;;;;;;;14.70;7.40;;;;;;;17.73;67.70;98606.85;233623;1202;138485;-65
2021/08/27 16:30:55;;;;;;;10.90;7.10;;;;;;;17.83;67.58;98604.45;233732;1201;138473;-67
2021/08/27 16:35:59;;;;;;;11.50;5.40;;;;;;;17.87;67.57;98603.37;233648;1201;138166;-63
2021/08/27 16:41:02;;;;;;;15.90;11.80;;;;;;;17.96;67.48;98602.95;233511;1203;139346;-65
2021/08/27 16:46:05;;;;;;;81.60;56.70;;;;;;;18.10;67.40;98598.48;233742;1201;138500;-65
2021/08/27 16:51:08;;;;;;;12.70;7.30;;;;;;;18.09;66.51;98600.77;233324;1202;138159;-64
2021/08/27 16:56:11;;;;;;;9.30;6.50;;;;;;;17.76;65.66;98608.55;233501;1204;138619;-64
2021/08/27 17:01:15;;;;;;;9.70;7.30;;;;;;;17.42;65.80;98613.65;233230;1201;139350;-65
2021/08/27 17:06:18;;;;;;;10.00;6.70;;;;;;;17.15;65.97;98615.88;233883;1201;138713;-64
2021/08/27 17:11:21;;;;;;;9.60;6.50;;;;;;;16.90;66.17;98621.55;233788;1201;138975;-63
2021/08/27 17:16:25;;;;;;;8.50;7.00;;;;;;;16.73;66.57;98621.81;233749;1201;138048;-65
2021/08/27 17:21:29;;;;;;;9.50;7.70;;;;;;;16.68;66.98;98626.77;233703;1201;138497;-65
2021/08/27 17:26:32;;;;;;;23.30;18.90;;;;;;;16.61;67.09;98626.49;233871;1201;137889;-65
2021/08/27 17:31:35;;;;;;;12.50;8.10;;;;;;;16.56;67.45;98630.71;233821;1201;138924;-64
2021/08/27 17:36:38;;;;;;;8.10;6.20;;;;;;;16.46;67.50;98634.36;233847;1201;138466;-66
2021/08/27 17:41:41;;;;;;;10.70;7.30;;;;;;;16.40;67.30;98637.14;233692;1201;138738;-64
2021/08/27 17:46:45;;;;;;;16.10;14.40;;;;;;;16.33;67.65;98641.63;233880;1200;138645;-64
2021/08/27 17:51:49;;;;;;;18.10;9.30;;;;;;;16.32;67.92;98649.13;233975;1201;139640;-64
2021/08/27 17:56:56;;;;;;;11.10;6.00;;;;;;;16.30;67.75;98648.14;233581;1201;138165;-66
2021/08/27 18:01:59;;;;;;;6.70;5.50;;;;;;;16.26;67.63;98653.55;233468;1201;138768;-64
2021/08/27 18:07:03;;;;;;;117.60;74.60;;;;;;;16.24;67.60;98661.27;233825;1200;138417;-64
2021/08/27 18:12:08;;;;;;;8.10;5.00;;;;;;;16.28;67.98;98661.63;233868;1201;139504;-64
2021/08/27 18:17:11;;;;;;;6.30;5.30;;;;;;;16.28;67.70;98670.20;233797;1201;138709;-66
2021/08/27 18:22:14;;;;;;;9.70;6.10;;;;;;;16.26;67.73;98676.27;233929;1201;138527;-66
2021/08/27 18:27:17;;;;;;;8.20;6.00;;;;;;;16.23;67.80;98678.03;233774;1200;139542;-64
2021/08/27 18:32:20;;;;;;;58.80;41.90;;;;;;;16.18;67.68;98683.66;233699;1199;139473;-66
2021/08/27 18:37:23;;;;;;;7.80;6.60;;;;;;;16.14;67.85;98687.98;233864;1200;138243;-69
2021/08/27 18:42:26;;;;;;;8.30;6.80;;;;;;;16.12;67.74;98688.89;233223;1201;139725;-66
2021/08/27 18:47:29;;;;;;;9.20;6.70;;;;;;;16.10;67.92;98686.19;233795;1198;138360;-67
2021/08/27 18:52:32;;;;;;;8.90;7.20;;;;;;;16.10;68.13;98686.17;233472;1201;138567;-67
2021/08/27 18:57:35;;;;;;;10.00;7.20;;;;;;;16.08;68.06;98683.30;233134;1201;139069;-66
2021/08/27 19:02:38;;;;;;;11.30;7.70;;;;;;;16.05;68.17;98684.64;233482;1201;138313;-67
2021/08/27 19:07:42;;;;;;;10.60;7.40;;;;;;;16.00;68.41;98682.95;233406;1201;138035;-67
2021/08/27 19:12:45;;;;;;;8.70;7.10;;;;;;;15.97;68.47;98682.85;232224;1202;138321;-67
2021/08/27 19:17:48;;;;;;;10.80;7.10;;;;;;;15.96;68.62;98680.41;233647;1200;138211;-67
2021/08/27 19:22:51;;;;;;;11.10;7.70;;;;;;;15.93;68.54;98688.27;233858;1201;139555;-68
2021/08/27 19:27:54;;;;;;;11.10;8.10;;;;;;;15.89;68.80;98690.27;233809;1201;138048;-65
2021/08/27 19:32:58;;;;;;;14.80;8.20;;;;;;;15.87;68.73;98690.45;233774;1201;138509;-67
2021/08/27 19:38:01;;;;;;;10.00;7.80;;;;;;;15.82;68.80;98686.31;233718;1200;138740;-69
2021/08/27 19:43:05;;;;;;;9.80;6.70;;;;;;;15.77;68.84;98680.20;233776;1201;138932;-68
2021/08/27 19:48:08;;;;;;;12.70;8.10;;;;;;;15.78;68.83;98689.56;233957;1199;140074;-68
2021/08/27 19:53:11;;;;;;;11.80;7.80;;;;;;;15.79;69.02;98693.41;233884;1201;138493;-67
2021/08/27 19:58:14;;;;;;;10.90;8.20;;;;;;;15.80;69.06;98696.17;233463;1201;138800;-67
2021/08/27 20:03:17;;;;;;;10.60;7.70;;;;;;;15.78;69.11;98697.24;233650;1200;139455;-66
2021/08/27 20:08:20;;;;;;;11.40;7.60;;;;;;;15.72;69.02;98701.05;233871;1201;139907;-66
2021/08/27 20:13:25;;;;;;;9.50;7.30;;;;;;;15.65;69.17;98702.55;233830;1199;138734;-67
2021/08/27 20:18:28;;;;;;;8.40;7.20;;;;;;;15.65;69.25;98703.62;233748;1201;138709;-66
2021/08/27 20:23:31;;;;;;;9.60;7.70;;;;;;;15.65;69.28;98708.41;233885;1200;138295;-65
2021/08/27 20:28:34;;;;;;;16.40;8.70;;;;;;;15.61;69.45;98716.80;233903;1200;138133;-65
2021/08/27 20:33:37;;;;;;;120.20;75.80;;;;;;;15.58;69.46;98720.27;233962;1200;138192;-64
2021/08/27 20:38:40;;;;;;;12.00;8.40;;;;;;;15.57;69.53;98723.59;233693;1201;139279;-64
2021/08/27 20:43:44;;;;;;;13.50;8.50;;;;;;;15.56;69.47;98725.31;233828;1201;138580;-63
2021/08/27 20:48:47;;;;;;;13.30;10.60;;;;;;;15.53;69.43;98730.42;233898;1199;138640;-62
2021/08/27 20:53:50;;;;;;;17.90;10.80;;;;;;;15.45;69.46;98730.54;233309;1200;230826;-64
2021/08/27 20:58:57;;;;;;;12.40;9.60;;;;;;;15.38;69.52;98727.02;233875;1197;138365;-65
2021/08/27 21:04:00;;;;;;;46.20;35.30;;;;;;;15.35;69.71;98735.17;233839;1201;140067;-66
2021/08/27 21:09:03;;;;;;;24.20;17.90;;;;;;;15.36;69.91;98732.44;233833;1200;139180;-64
2021/08/27 21:14:06;;;;;;;12.80;10.60;;;;;;;15.39;69.77;98734.16;233920;1199;138754;-66
2021/08/27 21:19:09;;;;;;;16.60;9.70;;;;;;;15.35;69.66;98736.64;233548;1200;138878;-66
2021/08/27 21:24:15;;;;;;;12.50;9.50;;;;;;;15.28;69.69;98740.84;234058;1201;138300;-66
2021/08/27 21:29:18;;;;;;;14.90;8.70;;;;;;;15.19;69.54;98744.83;233934;1199;140372;-65
2021/08/27 21:34:21;;;;;;;11.00;8.40;;;;;;;15.11;69.69;98743.89;233549;1201;139173;-66
2021/08/27 21:39:24;;;;;;;13.60;9.30;;;;;;;15.06;69.85;98747.46;233855;1201;138505;-67
2021/08/27 21:44:27;;;;;;;15.20;10.10;;;;;;;15.04;69.76;98746.98;233820;1201;138539;-68
2021/08/27 21:49:31;;;;;;;16.60;10.20;;;;;;;14.98;69.92;98746.39;233855;1201;139037;-65
2021/08/27 21:54:34;;;;;;;16.20;9.30;;;;;;;14.90;69.91;98743.14;234111;1199;138256;-66
2021/08/27 21:59:37;;;;;;;16.70;9.00;;;;;;;14.82;69.74;98741.33;233890;1201;139106;-66
2021/08/27 22:04:42;;;;;;;13.60;8.70;;;;;;;14.78;69.75;98748.13;232568;1201;139535;-68
2021/08/27 22:09:45;;;;;;;20.50;9.10;;;;;;;14.75;69.83;98749.11;233128;1201;138405;-67
2021/08/27 22:14:48;;;;;;;15.60;9.20;;;;;;;14.70;69.93;98752.37;233816;1198;138460;-64
2021/08/27 22:19:51;;;;;;;15.80;9.00;;;;;;;14.63;70.02;98761.25;233775;1199;138097;-63
2021/08/27 22:24:54;;;;;;;14.00;8.40;;;;;;;14.55;69.75;98756.46;233188;1201;138613;-69
2021/08/27 22:29:58;;;;;;;12.80;7.80;;;;;;;14.46;69.81;98754.98;233937;1200;139020;-64
2021/08/27 22:35:01;;;;;;;16.60;8.90;;;;;;;14.42;70.00;98757.11;234015;1201;139489;-68
2021/08/27 22:40:05;;;;;;;15.90;8.90;;;;;;;14.38;70.00;98756.34;234006;1201;138604;-67
2021/08/27 22:45:08;;;;;;;12.50;8.40;;;;;;;14.39;70.15;98756.29;233914;1201;138633;-68
2021/08/27 22:50:20;;;;;;;13.80;8.00;;;;;;;14.36;70.05;98757.98;232535;1200;137989;-62
2021/08/27 22:55:24;;;;;;;15.50;8.10;;;;;;;14.30;70.05;98761.35;233615;1199;140032;-68
2021/08/27 23:06:28;;;;;;;13.10;8.70;;;;;;;14.24;70.26;98768.77;231957;1211;139407;-63
2021/08/27 23:11:32;;;;;;;14.00;8.60;;;;;;;14.18;70.11;98766.77;231642;1212;138542;-65
2021/08/27 23:16:35;;;;;;;16.00;8.70;;;;;;;14.10;70.17;98767.45;231330;1212;141638;-66
2021/08/27 23:21:38;;;;;;;12.30;8.40;;;;;;;14.03;70.30;98766.04;231851;1211;138859;-66
2021/08/27 23:26:41;;;;;;;13.30;8.60;;;;;;;14.00;70.24;98768.80;232000;1211;139136;-64